Time;durP1;ratioP1;P1;durP2;ratioP2;P2;SDS_P1;SDS_P2;PMS_P1;PMS_P2;Temp;Humidity;BMP_temperature;BMP_pressure;BME280_temperature;BME280_humidity;BME280_pressure;Samples;Min_cycle;Max_cycle;Signal;HPM_P1;HPM_P2
2022/07/11 00:06:27;;;;;;;;;;;;;;;;;;;;;
2022/07/11 00:20:01;;;;;;;5.38;1.80;;;18.90;94.60;;;;;;5874081;24;20070;-90
2022/07/11 00:26:42;;;;;;;;;;;;;;;;;;;;;
2022/07/11 01:05:35;;;;;;;;;;;;;;;;;;;;;
2022/07/11 01:12:52;;;;;;;;;;;;;;;;;;;;;
2022/07/11 01:48:13;;;;;;;;;;;;;;;;;;;;;
2022/07/11 01:51:38;;;;;;;;;;;;;;;;;;;;;
2022/07/11 01:55:06;;;;;;;;;;;;;;;;;;;;;
2022/07/11 02:02:08;;;;;;;;;;;;;;;;;;;;;
2022/07/11 02:09:11;;;;;;;;;;;18.60;95.00;;;;;;5914144;24;20009;-90
2022/07/11 02:22:52;;;;;;;;;;;;;;;;;;;;;
2022/07/11 02:33:15;;;;;;;;;;;;;;;;;;;;;
2022/07/11 02:37:10;;;;;;;;;;;;;;;;;;;;;
2022/07/11 02:44:26;;;;;;;;;;;;;;;;;;;;;
2022/07/11 02:47:55;;;;;;;;;;;;;;;;;;;;;
2022/07/11 02:57:44;;;;;;;2.97;0.95;;;18.50;95.50;;;;;;5824342;24;20015;-91
2022/07/11 03:10:33;;;;;;;;;;;;;;;;;;;;;
2022/07/11 03:20:46;;;;;;;;;;;;;;;;;;;;;
2022/07/11 03:24:08;;;;;;;;;;;;;;;;;;;;;
2022/07/11 03:34:13;;;;;;;;;;;;;;;;;;;;;
2022/07/11 03:44:40;;;;;;;2.88;1.30;;;18.30;96.40;;;;;;5928728;24;20021;-88
2022/07/11 03:47:50;;;;;;;;;;;;;;;;;;;;;
2022/07/11 03:57:38;;;;;;;;;;;;;;;;;;;;;
2022/07/11 04:04:23;;;;;;;2.83;1.15;;;18.10;96.50;;;;;;5874665;24;20010;-89
2022/07/11 04:07:52;;;;;;;;;;;;;;;;;;;;;
2022/07/11 04:14:24;;;;;;;;;;;;;;;;;;;;;
2022/07/11 04:21:23;;;;;;;;;;;;;;;;;;;;;
2022/07/11 04:24:49;;;;;;;;;;;;;;;;;;;;;
2022/07/11 04:28:32;;;;;;;;;;;;;;;;;;;;;
2022/07/11 04:31:41;;;;;;;;;;;;;;;;;;;;;
2022/07/11 04:34:58;;;;;;;;;;;;;;;;;;;;;
2022/07/11 04:38:04;;;;;;;;;;;;;;;;;;;;;
2022/07/11 04:41:35;;;;;;;;;;;;;;;;;;;;;
2022/07/11 04:45:28;;;;;;;;;;;;;;;;;;;;;
2022/07/11 04:51:42;;;;;;;;;;;;;;;;;;;;;
2022/07/11 05:02:10;;;;;;;2.83;1.27;;;18.00;97.90;;;;;;6097773;23;19997;-89
2022/07/11 15:47:13;;;;;;;0.45;0.20;;;23.50;86.80;;;;;;5057494;27;20418;-86
2022/07/11 15:49:40;;;;;;;0.25;0.20;;;23.60;85.70;;;;;;5052200;28;20120;-90
2022/07/11 15:52:06;;;;;;;0.28;0.20;;;23.60;85.90;;;;;;5056783;28;20051;-87
2022/07/11 15:54:32;;;;;;;0.30;0.30;;;23.60;86.30;;;;;;5055225;28;20488;-89
2022/07/11 15:56:57;;;;;;;1.17;0.40;;;23.60;86.00;;;;;;5071435;28;20472;-87
2022/07/11 15:59:23;;;;;;;0.40;0.25;;;23.60;85.50;;;;;;5063913;28;20025;-89
2022/07/11 16:01:49;;;;;;;0.20;0.20;;;23.50;86.00;;;;;;5051839;28;20037;-91
2022/07/11 16:04:15;;;;;;;0.13;0.13;;;23.50;86.40;;;;;;5051115;28;20065;-88
2022/07/11 16:06:41;;;;;;;0.30;0.20;;;23.50;86.30;;;;;;5059897;28;20427;-87
2022/07/11 16:09:16;;;;;;;0.30;0.30;;;23.50;86.00;;;;;;5071158;28;20025;-87
2022/07/11 16:11:42;;;;;;;0.13;0.10;;;23.50;85.80;;;;;;5071061;28;20120;-88
2022/07/11 16:14:08;;;;;;;0.20;0.10;;;23.50;85.60;;;;;;5054533;28;20079;-89
2022/07/11 16:16:34;;;;;;;0.55;0.30;;;23.50;86.10;;;;;;5059924;28;20045;-88
2022/07/11 16:19:00;;;;;;;0.20;0.20;;;23.50;84.60;;;;;;5052418;28;20036;-88
2022/07/11 16:21:29;;;;;;;0.10;0.10;;;23.60;84.60;;;;;;5052783;28;20025;-88
2022/07/11 16:23:56;;;;;;;0.20;0.10;;;23.60;84.70;;;;;;5052725;28;20040;-88
2022/07/11 16:26:21;;;;;;;0.20;0.20;;;23.70;84.40;;;;;;5035135;28;20045;-90
2022/07/11 16:28:47;;;;;;;0.40;0.30;;;23.70;84.60;;;;;;5071597;28;20057;-89
2022/07/11 16:31:18;;;;;;;0.20;0.20;;;23.70;84.80;;;;;;5054401;28;20119;-88
2022/07/11 16:33:44;;;;;;;0.17;0.03;;;23.80;84.90;;;;;;5055163;28;20376;-88
2022/07/11 16:36:10;;;;;;;0.30;0.10;;;23.80;84.80;;;;;;5070648;28;20028;-87
2022/07/11 16:38:36;;;;;;;0.32;0.20;;;23.80;85.00;;;;;;5067081;28;20473;-88
2022/07/11 16:43:49;;;;;;;0.20;0.20;;;23.90;85.70;;;;;;5071761;28;20043;-88
2022/07/11 16:46:15;;;;;;;0.57;0.30;;;23.90;85.60;;;;;;5053826;28;20404;-88
2022/07/11 16:48:41;;;;;;;0.10;0.10;;;23.90;85.80;;;;;;5066008;28;20487;-87
2022/07/11 16:51:15;;;;;;;0.63;0.30;;;24.00;85.80;;;;;;5069787;28;20037;-90
2022/07/11 16:53:42;;;;;;;0.35;0.20;;;24.00;85.90;;;;;;5054989;28;20025;-89
2022/07/11 16:56:13;;;;;;;0.20;0.20;;;24.00;85.90;;;;;;5067219;28;20052;-89
2022/07/11 16:58:39;;;;;;;0.40;0.40;;;24.00;85.70;;;;;;5037800;28;20040;-88
2022/07/11 17:01:07;;;;;;;0.20;0.20;;;24.00;85.30;;;;;;5040155;28;20045;-87
2022/07/11 17:03:33;;;;;;;0.32;0.20;;;24.00;85.10;;;;;;5057756;28;20021;-87
2022/07/11 17:05:59;;;;;;;0.40;0.10;;;23.90;85.20;;;;;;5056924;28;20031;-87
2022/07/11 17:08:45;;;;;;;0.25;0.20;;;23.90;85.50;;;;;;5038995;28;20116;-87
2022/07/11 17:11:15;;;;;;;0.60;0.30;;;23.90;85.60;;;;;;5057724;28;20052;-89
2022/07/11 17:13:41;;;;;;;0.20;0.10;;;23.80;85.80;;;;;;5058466;28;20030;-90
2022/07/11 17:16:07;;;;;;;0.30;0.20;;;23.80;85.80;;;;;;5058803;28;20281;-89
2022/07/11 17:18:34;;;;;;;0.30;0.10;;;23.70;85.60;;;;;;5030371;28;20025;-88
2022/07/11 17:21:00;;;;;;;0.25;0.25;;;23.70;85.80;;;;;;5078266;28;20025;-88
2022/07/11 17:23:29;;;;;;;1.17;0.30;;;23.60;85.90;;;;;;5078308;28;20028;-88
2022/07/11 17:26:01;;;;;;;0.28;0.28;;;23.60;86.10;;;;;;5061528;28;20028;-89
2022/07/11 17:28:28;;;;;;;0.32;0.20;;;23.40;86.20;;;;;;5061597;28;20092;-87
2022/07/11 17:30:53;;;;;;;1.70;0.20;;;23.40;86.40;;;;;;5073524;28;20021;-89
2022/07/11 17:33:20;;;;;;;0.25;0.22;;;23.40;86.60;;;;;;5065475;28;20044;-88
2022/07/11 17:35:47;;;;;;;0.95;0.30;;;23.30;87.00;;;;;;5058404;28;20029;-90
2022/07/11 17:38:13;;;;;;;0.70;0.25;;;23.30;87.30;;;;;;5059072;28;20028;-89
2022/07/11 17:40:39;;;;;;;0.20;0.20;;;23.20;87.50;;;;;;5054663;28;20025;-87
2022/07/11 17:43:05;;;;;;;0.35;0.30;;;23.20;87.50;;;;;;5058947;28;20025;-88
2022/07/11 17:45:32;;;;;;;0.68;0.32;;;23.10;87.50;;;;;;5058271;28;20064;-91
2022/07/11 17:48:05;;;;;;;0.80;0.30;;;23.10;87.60;;;;;;5040798;28;20044;-88
2022/07/11 17:50:35;;;;;;;0.25;0.15;;;23.10;87.80;;;;;;5052311;28;20026;-88
2022/07/11 17:53:03;;;;;;;0.30;0.30;;;23.00;87.70;;;;;;5058288;28;20057;-89
2022/07/11 17:55:29;;;;;;;0.47;0.25;;;23.00;87.80;;;;;;5058053;28;20037;-89
2022/07/11 17:57:55;;;;;;;0.50;0.40;;;23.00;88.00;;;;;;5057485;28;20119;-91
2022/07/11 18:00:23;;;;;;;0.55;0.20;;;22.90;88.10;;;;;;5057667;28;20474;-87
2022/07/11 18:02:49;;;;;;;0.20;0.20;;;22.90;88.30;;;;;;5052302;28;20040;-89
2022/07/11 18:05:15;;;;;;;0.40;0.40;;;22.80;88.40;;;;;;5057869;28;20029;-89
2022/07/11 18:07:55;;;;;;;0.32;0.15;;;22.80;88.60;;;;;;5056765;28;20033;-91
2022/07/11 18:10:20;;;;;;;0.75;0.20;;;22.80;88.70;;;;;;5056981;28;20028;-89
2022/07/11 18:12:46;;;;;;;0.20;0.20;;;22.70;88.50;;;;;;5055456;28;20025;-86
2022/07/11 18:15:13;;;;;;;0.20;0.20;;;22.70;88.60;;;;;;5040608;28;20031;-88
2022/07/11 18:17:43;;;;;;;0.30;0.30;;;22.70;88.70;;;;;;5057407;28;20020;-89
2022/07/11 18:20:18;;;;;;;0.35;0.20;;;22.60;88.40;;;;;;5024494;28;20029;-91
2022/07/11 18:22:46;;;;;;;0.35;0.25;;;22.50;88.40;;;;;;5053534;28;20037;-87
2022/07/11 18:25:12;;;;;;;0.70;0.30;;;22.50;88.40;;;;;;5040783;28;20052;-88
2022/07/11 18:27:40;;;;;;;0.50;0.30;;;22.40;88.30;;;;;;5057805;28;20083;-89
2022/07/11 18:30:09;;;;;;;0.17;0.17;;;22.40;88.40;;;;;;5054887;28;20037;-89
2022/07/11 18:32:39;;;;;;;0.90;0.50;;;22.40;88.50;;;;;;5040317;28;20435;-88
2022/07/11 18:35:34;;;;;;;0.40;0.40;;;22.30;88.40;;;;;;5040404;28;20029;-91
2022/07/11 18:38:00;;;;;;;0.63;0.40;;;22.30;88.40;;;;;;5056315;28;20027;-88
2022/07/11 18:43:13;;;;;;;0.20;0.20;;;22.20;88.50;;;;;;5057072;28;20083;-87
2022/07/11 18:45:40;;;;;;;0.68;0.30;;;22.20;88.60;;;;;;5056081;28;20049;-89
2022/07/11 18:48:06;;;;;;;0.22;0.22;;;22.20;88.60;;;;;;5057378;28;20055;-87
2022/07/11 18:50:40;;;;;;;0.52;0.40;;;22.10;88.80;;;;;;5031400;28;20025;-88
2022/07/11 18:53:07;;;;;;;0.73;0.40;;;22.10;89.00;;;;;;5053414;28;20025;-89
2022/07/11 18:55:33;;;;;;;0.40;0.30;;;22.10;89.10;;;;;;5037266;28;20049;-88
2022/07/11 18:57:59;;;;;;;0.85;0.38;;;22.00;89.10;;;;;;5037185;28;20029;-88
2022/07/11 19:00:29;;;;;;;0.47;0.30;;;22.00;89.30;;;;;;5039316;28;20096;-89
2022/07/11 19:02:54;;;;;;;0.40;0.40;;;22.00;89.30;;;;;;5056659;28;20033;-91
2022/07/11 19:05:22;;;;;;;0.40;0.40;;;22.00;89.40;;;;;;5056540;28;20032;-89
2022/07/11 19:07:48;;;;;;;0.45;0.20;;;21.90;89.30;;;;;;5058477;28;20035;-90
2022/07/11 19:10:14;;;;;;;0.28;0.20;;;21.90;89.40;;;;;;5057282;28;20017;-90
